Tiempo atmosférico en la estación meteorológica de Puerto De Leitariegos, Asturias (1550 m.)



Fecha
DESCASC
Temp. máxima en grados centígrados (hora)
DESCASC
Temp. mínima en grados centígrados (hora)
DESCASC
Temp. media en grados centígrados
DESCASC
Racha de viento máxima en m/sg (hora)
DESCASC
Velocidad máxima media en intervalos de 10 minutos(hora)
DESCASC
Precipitaciones diarias en mm
DESCASC
Precipitaciones de 00:00 a 06:00 en mm
DESCASC
Precipitaciones de 06:00 a 12:00 en mm
DESCASC
Precipitaciones de 12:00 a 18:00 en mm
DESCASC
Precipitaciones de 18:00 a 24:00 en mm
DESCASC
11-12-2019 5 (03:50) -1.6 (09:30) 1.7 15.28 (08:40) 9.72 (05:00) 8.6 8 0.6 0 0
10-12-2019 6.6 (14:30) 1.1 (03:30) 3.8 11.67 (19:50) 6.11 (19:50) 0 0 0 0 0
09-12-2019 3 (14:50) -0.3 (09:30) 1.3 14.72 (11:40) 10 (11:40) 0 0 0 0 0
08-12-2019 7.3 (04:00) 1.3 (00:00) 4.3 11.67 (15:00) 7.22 (15:00) 2.2 0 1.2 1 0
07-12-2019 8.6 (12:30) 2.8 (00:00) 5.7 7.22 (22:10) 3.33 (23:50) 0 0 0 0 0
06-12-2019 7.5 (14:30) 0.7 (00:00) 4.1 5 (08:30) 4.17 (17:20) 0 0 0 0 0
05-12-2019 6 (12:40) -2 (-00:0) 2 13.06 (06:10) 6.39 (03:00) 0 0 0 0 0
04-12-2019 3.8 (15:00) -4.6 (-00:0) -0.4 11.11 (02:30) 6.94 (02:30) 0 0 0 0 0
03-12-2019 3.2 (13:00) -4.8 (-00:0) -0.8 8.33 (22:20) 5.83 (22:20) 0 0 0 0 0
02-12-2019 1.1 (14:20) -3.1 (-00:0) -1 14.72 (00:10) 6.94 (00:10) 0.6 0.4 0 0.2 0
01-12-2019 2.7 (13:50) -1 (-00:0) 0.9 -- (--) -- (--) 4.6 0.2 0 0.8 3.6
30-11-2019 7 (07:10) 0.8 (00:00) 3.9 19.17 (09:10) 10 (09:10) 11 6 5 0 0
29-11-2019 7.3 (15:00) 1 (00:00) 4.2 7.22 (01:20) 3.89 (12:40) 0 0 0 0 0
28-11-2019 7 (19:30) 4.1 (00:00) 5.5 20.28 (00:40) 8.61 (01:20) 6.8 0.4 0 3.8 2.6
27-11-2019 4.5 (23:59) 2.1 (00:00) 3.3 25.83 (01:30) 11.11 (01:20) 8 1.4 0 3.6 3
26-11-2019 6.6 (05:30) 2.2 (00:00) 4.4 30.83 (20:50) 13.33 (19:20) 7.4 0 0.4 3 4
25-11-2019 5.6 (13:50) 2.3 (00:00) 3.9 23.89 (04:30) 9.72 (00:10) 0 0 0 0 0
24-11-2019 2.4 (23:59) -0.9 (-00:0) 0.8 19.17 (23:59) 10.28 (23:59) 3.6 0 0 0.4 3.2
23-11-2019 0.2 (00:00) -1.4 (-00:0) -0.6 28.33 (05:10) 16.94 (09:00) 12.2 8.8 0.2 2.8 0.4
22-11-2019 3.8 (12:10) -0.4 (00:00) 1.7 22.78 (19:20) 11.39 (12:10) 25.6 1.6 4.4 5 14.6
21-11-2019 1.5 (14:20) -1.1 (-00:0) 0.2 15.28 (08:20) 7.78 (08:00) 0.4 0.4 0 0 0
20-11-2019 1.2 (15:10) -0.3 (00:00) 0.5 12.22 (22:10) 6.39 (22:30) 0.4 0 0 0 0.4
19-11-2019 0.6 (15:10) -4.5 (-00:0) -1.9 5.28 (14:30) 3.89 (19:20) 0 0 0 0 0
18-11-2019 0.4 (13:20) -3.3 (-00:0) -1.4 14.44 (01:20) 9.17 (01:10) 2.2 1.2 1 0 0
17-11-2019 2.3 (07:00) -1.7 (-00:0) 0.3 15.28 (11:20) 10.28 (20:30) 3.4 0.2 1.4 0 1.8
16-11-2019 -0.1 (23:10) -2.7 (-00:0) -1.4 -- (--) -- (--) 3.2 1.8 0.6 0.8 0
15-11-2019 -2.4 (00:00) -3.2 (-00:0) -2.8 -- (--) -- (--) 13.6 4 0.4 3.6 5.6

Gráficas

Temp. máximas Temp. mínimas Temp. medias Precipitaciones Rachas de viento máximas Velocidades máximas media en intervalos de 10 minutos

Datos horarios

Fecha y hora oficial Temperatura (ºC) Velocidad del viento (km/h) Dirección del viento Racha (km/h) Dirección de racha Precipitación (mm) Presión (hPa) Tendencia (hPa) Humedad (%)
2019-12-14 23:00:00 4.5 25 Sudeste 53 Sur 0 842 -0.8 88
2019-12-14 22:00:00 4.4 13 Este 50 Sur 0 842.2 -0.9 89
2019-12-14 21:00:00 4.3 24 Sudeste 64 Sudeste 0 842.1 -1.1 90
2019-12-14 20:00:00 4.3 17 Sudeste 48 Sudeste 0 842.8 -0.1 90
2019-12-14 19:00:00 4.5 10 Nordeste 29 Este 0 843.1 -0.4 88
2019-12-14 18:00:00 4.5 14 Sudeste 41 Sur 0 843.2 -0.1 87
2019-12-14 17:00:00 4.6 15 Sudeste 73 Sudeste 0 842.9 -0.8 85
2019-12-14 16:00:00 4.8 15 Sudoeste 47 Sudeste 0 843.5 -1.3 83
2019-12-14 15:00:00 4.5 19 Sudeste 54 Sur 0 843.3 -2.5 90
2019-12-14 14:00:00 4.5 19 Sudeste 45 Sur 0 843.7 -2.2 88
2019-12-14 13:00:00 4.5 17 Sudeste 41 Sudeste 0 844.8 -0.9 88
2019-12-14 12:00:00 4.6 9 Norte 35 Noroeste 0 845.8 0.5 82
2019-12-14 11:00:00 3.9 17 Noroeste 33 Noroeste 0 845.9 0.4 84
2019-12-14 10:00:00 4.2 18 Norte 51 Norte 0 845.7 0.4 82
2019-12-14 09:00:00 4.1 21 Noroeste 62 Norte 0 845.3 -0.5 81
2019-12-14 08:00:00 3.9 14 Noroeste 56 Norte 0 845.5 -0.1 86
2019-12-14 07:00:00 3.9 23 Noroeste 60 Noroeste 0 845.3 -0.8 85
2019-12-14 06:00:00 3.5 22 Noroeste 57 Noroeste 0 845.8 -0.2 85
2019-12-14 05:00:00 3.5 17 Noroeste 53 Norte 0 845.6 -0.6 88
2019-12-14 04:00:00 3.8 19 Noroeste 55 Norte 0 846.1 -0.3 84
2019-12-14 03:00:00 3.7 21 Noroeste 46 Noroeste 0 846 -0.4 87
2019-12-14 02:00:00 3.8 19 Noroeste 67 Noroeste 0 846.2 0.1 85
2019-12-14 01:00:00 3.7 20 Noroeste 57 Oeste 0 846.4 0.4 86
2019-12-14 00:00:00 4.1 23 Oeste 64 Noroeste 0 846.4 -0.2 81
2019-12-13 23:00:00 3.7 30 Norte 66 Noroeste 0 846.1 -0.3 84
2019-12-13 22:00:00 3.9 25 Norte 52 Noroeste 0 846 0 85
2019-12-13 21:00:00 3.6 20 Noroeste 41 Norte 0 846.6 1.1 84
2019-12-13 20:00:00 4.2 14 Norte 55 Noroeste 0 846.4 1 82
2019-12-13 19:00:00 4.8 23 Norte 56 Norte 0 846 0.5 88
2019-12-13 18:00:00 5.2 21 Noroeste 53 Noroeste 0 845.5 0.3 85
2019-12-13 17:00:00 5.7 25 Noroeste 54 Noroeste 0 845.4 -0.3 85
2019-12-13 16:00:00 6 26 Noroeste 58 Noroeste 0 845.5 -0.6 87
2019-12-13 15:00:00 6.5 30 Noroeste 57 Noroeste 0 845.2 -1.2 90
2019-12-13 14:00:00 6.4 29 Noroeste 54 Noroeste 0 845.7 -0.6 94
2019-12-13 13:00:00 5.9 24 Noroeste 47 Noroeste 0 846.1 0.3 96
2019-12-13 12:00:00 5.8 28 Noroeste 53 Noroeste 0 846.4 1 95
2019-12-13 11:00:00 5.5 24 Noroeste 47 Noroeste 0 846.3 1.4 95
2019-12-13 10:00:00 5.8 30 Noroeste 52 Noroeste 0.2 845.8 2 93
2019-12-13 09:00:00 5.6 26 Noroeste 50 Noroeste 0.2 845.4 1.9 94
2019-12-13 08:00:00 5.3 24 Noroeste 69 Noroeste 0.6 844.9 1.5 95
2019-12-13 07:00:00 5.6 24 Noroeste 60 Noroeste 0 843.8 0.2 93
2019-12-13 06:00:00 5.7 26 Noroeste 61 Noroeste 0.2 843.5 -0.2 91
2019-12-13 05:00:00 5.7 18 Noroeste 58 Noroeste 0 843.4 0.3 91
2019-12-13 04:00:00 5.9 22 Noroeste 57 Norte 0.2 843.6 0.3 90
2019-12-13 03:00:00 5.5 21 Noroeste 68 Noroeste 0 843.7 0.9 94
2019-12-13 02:00:00 6 24 Noroeste 63 Noroeste 0 843.1 0.8 92
2019-12-13 01:00:00 5.9 22 Noroeste 62 Noroeste 1.4 843.3 1.2 94
2019-12-13 00:00:00 5.9 25 Noroeste 57 Noroeste 2.8 842.8 0.8 94
2019-12-12 23:00:00 5.8 24 Noroeste 50 Noroeste 3 842.3 0.2 94
2019-12-12 22:00:00 5.9 27 Noroeste 52 Noroeste 3.2 842.1 0.1 94
2019-12-12 21:00:00 5.6 22 Noroeste 55 Noroeste 3 842 0.5 95
2019-12-12 20:00:00 5.5 17 Noroeste 48 Noroeste 2.4 842.1 0.9 96
2019-12-12 19:00:00 5.2 25 Noroeste 53 Norte 3.2 842 1 95
2019-12-12 18:00:00 4.9 25 Noroeste 54 Noroeste 4.2 841.5 0 95
2019-12-12 17:00:00 4.4 21 Noroeste 58 Noroeste 3.8 841.2 -0.8 95
2019-12-12 16:00:00 4.2 27 Noroeste 64 Noroeste 4.2 841 -1.6 93
2019-12-12 15:00:00 3.9 27 Noroeste 61 Noroeste 3.2 841.5 -2.3 91
2019-12-12 14:00:00 3.6 24 Noroeste 78 Noroeste 4.8 842 -2.2 89
2019-12-12 13:00:00 2.6 23 Noroeste 54 Noroeste 3.4 842.6 -1.8 88
2019-12-12 12:00:00 1.8 27 Noroeste 78 Oeste 1.6 843.8 -1.4 88
2019-12-12 11:00:00 0.8 26 Noroeste 69 Norte 0.4 844.2 -1.1 91
2019-12-12 10:00:00 0.8 32 Noroeste 75 Noroeste 0.6 844.4 -1.2 90
2019-12-12 09:00:00 0.6 27 Noroeste 53 Noroeste 0.4 845.2 -1.2 91
2019-12-12 08:00:00 1.1 28 Noroeste 49 Oeste 0.4 845.3 -1.8 89
2019-12-12 07:00:00 0.7 16 Noroeste 51 Noroeste 0.2 845.6 -2.4 92
2019-12-12 06:00:00 1 21 Noroeste 42 Noroeste 0.2 846.4 -2.3 90
2019-12-12 05:00:00 1 17 Noroeste 46 Noroeste 0 847.1 -2 92
2019-12-12 04:00:00 0.8 20 Noroeste 41 Noroeste 0 848 -2.1 92
2019-12-12 03:00:00 0.6 17 Noroeste 41 Noroeste 0 848.7 -1.8 93
2019-12-12 02:00:00 0.5 21 Noroeste 40 Noroeste 0 849.1 -1.7 94
2019-12-12 01:00:00 0.3 13 Noroeste 31 Noroeste 0 850.1 -0.9 95
2019-12-12 00:00:00 0.2 12 Noroeste 44 Noroeste 0 850.5 -1 95
2019-12-11 23:00:00 0.1 13 Noroeste 36 Noroeste 0 850.8 -0.8 94
2019-12-11 22:00:00 0.2 21 Noroeste 45 Noroeste 0 851 -0.5 94
2019-12-11 21:00:00 0.1 22 Noroeste 51 Noroeste 0 851.5 0 94
2019-12-11 20:00:00 0 23 Noroeste 46 Noroeste 0 851.6 0.4 95
2019-12-11 19:00:00 -0.1 19 Noroeste 33 Noroeste 0 851.5 0.2 95
2019-12-11 18:00:00 0 20 Noroeste 42 Noroeste 0 851.5 0 95
2019-12-11 17:00:00 0.1 21 Noroeste 45 Noroeste 0 851.2 -0.8 93
2019-12-11 16:00:00 0.3 17 Noroeste 44 Noroeste 0 851.3 -1.1 91
2019-12-11 15:00:00 0.2 20 Noroeste 41 Noroeste 0 851.5 -1.1 90
2019-12-11 14:00:00 -0.4 24 Noroeste 43 Noroeste 0 852 -0.3 91
2019-12-11 13:00:00 -1 24 Noroeste 44 Noroeste 0 852.4 0.5 88
2019-12-11 12:00:00 -1.1 23 Noroeste 45 Noroeste 0 852.6 1.3 89
2019-12-11 11:00:00 -1.2 19 Noroeste 46 Noroeste 0 852.3 1.7 92
2019-12-11 10:00:00 -1.6 28 Noroeste 52 Noroeste 0 851.9 1.8 94
2019-12-11 09:00:00 -1.2 29 Noroeste 55 Noroeste 0.2 851.3 1.1 95
2019-12-11 08:00:00 -0.7 27 Noroeste 51 Noroeste 0.2 850.6 1 95
2019-12-11 07:00:00 -0.3 27 Noroeste 41 Noroeste 0.2 850.1 0.4 95
2019-12-11 06:00:00 0.1 24 Noroeste 49 Noroeste 2 850.2 0.2 94
2019-12-11 05:00:00 1.3 35 Norte 49 Norte 1.6 849.6 -0.7 93
2019-12-11 04:00:00 4.5 15 Noroeste 42 Oeste 2 849.7 -1.5 89
2019-12-11 03:00:00 4.3 13 Noroeste 29 Oeste 2.4 850 -1.6 88
2019-12-11 02:00:00 3 11 Sur 22 Sudeste 0 850.3 -1.7 80
2019-12-11 01:00:00 3.1 11 Sudeste 23 Sudeste 0 851.2 -1.4 73
2019-12-11 00:00:00 3.5 14 Sur 25 Sudeste 0 851.6 -1.1 60
2019-12-10 23:00:00 3.6 12 Sudeste 27 Sudeste 0 852 -1 56
2019-12-10 22:00:00 3.8 8 Sudeste 26 Sudeste 0 852.6 -0.7 54
2019-12-10 21:00:00 4.5 17 Sudeste 31 Sudeste 0 852.7 -0.9 53
2019-12-10 20:00:00 4.9 18 Sudeste 42 Sudeste 0 853 -0.9 49
2019-12-10 19:00:00 5.5 12 Sur 23 Sur 0 853.3 -0.7 44
2019-12-10 18:00:00 5.5 3 Sudoeste 14 Sudeste 0 853.6 -1 52
2019-12-10 17:00:00 6 9 Sur 21 Sur 0 853.9 -1.4 55
2019-12-10 16:00:00 5.8 13 Sudeste 21 Sur 0 854 -2.1 48
2019-12-10 15:00:00 5.7 11 Sudeste 18 Sur 0 854.6 -2.3 51
2019-12-10 14:00:00 5.9 12 Sudeste 20 Sudeste 0 855.3 -1.8 52
2019-12-10 13:00:00 5.7 10 Sudeste 17 Sudeste 0 856.1 -1 50
2019-12-10 12:00:00 5.6 9 Sudeste 16 Sudeste 0 856.9 -0.2 47
2019-12-10 11:00:00 4.2 6 Sur 15 Sudeste 0 857.1 -0.1 50
2019-12-10 10:00:00 2.9 7 Sudeste 13 Sudeste 0 857.1 -0.1 51
2019-12-10 09:00:00 2.5 5 Sudeste 9 Sudeste 0 857.1 -0.2 58
2019-12-10 08:00:00 3.3 2 Oeste 4 Noroeste 0 857.2 -0.5 61
2019-12-10 07:00:00 1.9 0 Calma 5 Sudeste 0 857.2 -1 62
2019-12-10 06:00:00 1.7 3 Sur 5 Sudeste 0 857.3 -1.2 56
2019-12-10 05:00:00 1.3 0 Calma 6 Sur 0 857.7 -0.9 52
2019-12-10 04:00:00 1.8 3 Sudeste 5 Sudeste 0 858.2 -1 51
2019-12-10 03:00:00 1.5 0 Calma 4 Sudoeste 0 858.5 -0.8 55
2019-12-10 02:00:00 1.6 0 Calma 13 Noroeste 0 858.6 -0.7 56
2019-12-10 01:00:00 2.5 10 Noroeste 15 Noroeste 0 859.2 -0.3 53
2019-12-10 00:00:00 1.9 10 Noroeste 15 Noroeste 0 859.3 0 52
2019-12-09 23:00:00 2 7 Noroeste 18 Oeste 0 859.3 0.1 52
2019-12-09 22:00:00 1.5 4 Noroeste 26 Noroeste 0 859.5 0.8 56
2019-12-09 21:00:00 2.3 18 Noroeste 21 Noroeste 0 859.3 0.6 55
2019-12-09 20:00:00 0.4 7 Noroeste 16 Noroeste 0 859.2 1.1 78
2019-12-09 19:00:00 0.7 12 Noroeste 18 Noroeste 0 858.7 0.5 83
2019-12-09 18:00:00 0.8 13 Noroeste 42 Oeste 0 858.7 0.7 89
2019-12-09 17:00:00 2 28 Noroeste 41 Noroeste 0 858.1 0 78
2019-12-09 16:00:00 2.3 24 Noroeste 33 Noroeste 0 858.2 -0.2 84
2019-12-09 15:00:00 2.6 24 Noroeste 40 Oeste 0 858 -0.8 85
2019-12-09 14:00:00 2.3 27 Norte 40 Noroeste 0 858.1 -0.4 88
2019-12-09 13:00:00 2.4 26 Noroeste 50 Noroeste 0 858.4 -0.1 86
2019-12-09 12:00:00 1.5 33 Noroeste 53 Noroeste 0 858.8 0.9 90
2019-12-09 11:00:00 1 33 Noroeste 44 Noroeste 0 858.5 1.1 90
2019-12-09 10:00:00 0.5 22 Noroeste 39 Noroeste 0 858.5 1.4 83
2019-12-09 09:00:00 1.8 34 Norte 45 Noroeste 0 857.9 1.1 65
2019-12-09 08:00:00 1.8 21 Noroeste 36 Norte 0 857.4 0.6 60
2019-12-09 07:00:00 1.6 28 Norte 37 Norte 0 857.1 0.3 58
2019-12-09 06:00:00 2.2 28 Norte 36 Norte 0 856.8 0.3 50
2019-12-09 05:00:00 1.6 24 Norte 34 Norte 0 856.8 0.1 49
2019-12-09 04:00:00 2 27 Norte 34 Norte 0 856.8 0.1 46
2019-12-09 03:00:00 1.9 21 Noroeste 34 Norte 0 856.5 0.1 43
2019-12-09 02:00:00 1.6 20 Noroeste 31 Noroeste 0 856.7 0.5 44
2019-12-09 01:00:00 1.7 17 Noroeste 27 Noroeste 0 856.7 0.8 44
2019-12-09 00:00:00 1.9 15 Noroeste 23 Noroeste 0 856.4 0.8 45
2019-12-08 23:00:00 1.7 17 Noroeste 24 Noroeste 0 856.2 0.8 59
2019-12-08 22:00:00 1.7 11 Noroeste 20 Noroeste 0 855.9 0.8 65
2019-12-08 21:00:00 1.6 0 Calma 13 Norte 0 855.6 1.1 83
2019-12-08 20:00:00 2.9 11 Noroeste 21 Noroeste 0 855.4 1.4 92
2019-12-08 19:00:00 3.4 8 Noroeste 20 Noroeste 0 855.1 1.1 90
2019-12-08 18:00:00 4 12 Noroeste 17 Noroeste 0 854.5 0.7 90
2019-12-08 17:00:00 5 10 Noroeste 29 Noroeste 0 854 0.8 91
2019-12-08 16:00:00 5.9 21 Noroeste 32 Noroeste 0 854 0.4 89
2019-12-08 15:00:00 6.4 26 Noroeste 42 Noroeste 0 853.8 0.1 95
2019-12-08 14:00:00 6.8 17 Noroeste 27 Noroeste 0 853.2 -0.5 96
2019-12-08 13:00:00 6.6 17 Noroeste 30 Noroeste 1 853.6 0.4 95
2019-12-08 12:00:00 7 10 Noroeste 23 Norte 0 853.7 1.1 95
2019-12-08 11:00:00 6.9 6 Noroeste 19 Noroeste 0.4 853.7 1.1 94
2019-12-08 10:00:00 5.4 4 Sur 11 Sudeste 0.8 853.2 0.8 93
2019-12-08 09:00:00 5.6 4 Sudeste 9 Sudeste 0 852.6 0 91
2019-12-08 08:00:00 6.1 4 Noroeste 27 Oeste 0 852.6 0.1 89
2019-12-08 07:00:00 6.2 5 Oeste 21 Sudoeste 0 852.4 -0.4 91
2019-12-08 06:00:00 5.9 7 Noroeste 20 Noroeste 0 852.6 -0.2 94
2019-12-08 05:00:00 6.4 3 Noroeste 23 Norte 0 852.5 -0.4 90
2019-12-08 04:00:00 7.3 15 Oeste 29 Oeste 0 852.8 -0.6 88
2019-12-08 03:00:00 6 9 Noroeste 19 Oeste 0 852.8 -0.7 92
2019-12-08 02:00:00 5.7 6 Noroeste 15 Oeste 0 852.9 -0.7 93
2019-12-08 01:00:00 5.5 2 Noroeste 19 Norte 0 853.4 -0.2 89
2019-12-08 00:00:00 5.5 10 Noroeste 21 Noroeste 0 853.5 0.1 86
2019-12-07 23:00:00 4.8 5 Noroeste 26 Oeste 0 853.6 0.3 85
2019-12-07 22:00:00 5.4 8 Oeste 24 Oeste 0 853.6 0.6 81
2019-12-07 21:00:00 5.1 3 Norte 26 Oeste 0 853.4 0.5 85
2019-12-07 20:00:00 4.9 4 Noroeste 21 Sudoeste 0 853.3 0.7 87
2019-12-07 19:00:00 5.5 8 Noroeste 23 Noroeste 0 853 1 89
2019-12-07 18:00:00 6 2 Sudeste 16 Sudoeste 0 852.9 0.7 85
2019-12-07 17:00:00 6.8 3 Oeste 14 Norte 0 852.6 0.1 82
2019-12-07 16:00:00 7.2 3 Sur 13 Oeste 0 852 -1.1 82
2019-12-07 15:00:00 7.3 6 Oeste 16 Oeste 0 852.2 -1.3 82
2019-12-07 14:00:00 7.9 4 Sudoeste 11 Sudoeste 0 852.5 -0.9 80
2019-12-07 13:00:00 8.1 2 Noroeste 9 Sudeste 0 853.1 0 79
2019-12-07 12:00:00 7.2 4 Sudeste 6 Sudeste 0 853.5 0.8 84
2019-12-07 11:00:00 6.2 2 Noroeste 9 Noroeste 0 853.4 0.9 85
2019-12-07 10:00:00 5.1 0 Calma 4 Sur 0 853.1 0.9 88
2019-12-07 09:00:00 4.2 0 Calma 9 Sudeste 0 852.7 0.6 92
2019-12-07 08:00:00 4.5 6 Noroeste 9 Noroeste 0 852.5 0.3 90
2019-12-07 07:00:00 4.3 2 Noroeste 6 Sudeste 0 852.2 -0.1 87
2019-12-07 06:00:00 4.4 0 Calma 5 Sur 0 852.1 -0.1 84
2019-12-07 05:00:00 3.8 5 Sudeste 9 Sudeste 0 852.2 -0.3 67
2019-12-07 04:00:00 3.2 2 Nordeste 6 Sudeste 0 852.3 -0.5 67
2019-12-07 03:00:00 3.1 0 Calma 9 Sudeste 0 852.2 -0.7 61
2019-12-07 02:00:00 2.9 0 Calma 10 Oeste 0 852.5 -0.1 46
2019-12-07 01:00:00 3.3 2 Oeste 7 Noroeste 0 852.8 0.3 62
2019-12-07 00:00:00 4 8 Noroeste 14 Noroeste 0 852.9 0.6 66
2019-12-06 23:00:00 4.3 5 Noroeste 15 Noroeste 0 852.6 0.6 60
2019-12-06 22:00:00 3.9 9 Noroeste 14 Noroeste 0 852.5 0.8 53
2019-12-06 21:00:00 3.3 5 Noroeste 14 Norte 0 852.3 0.9 54
2019-12-06 20:00:00 3.4 3 Noroeste 8 Oeste 0 852 0.6 53
2019-12-06 19:00:00 3.5 2 Noroeste 15 Noroeste 0 851.7 0.5 57
2019-12-06 18:00:00 4.6 7 Noroeste 18 Noroeste 0 851.4 -0.1 57
2019-12-06 17:00:00 5.5 10 Noroeste 15 Noroeste 0 851.4 -0.3 57
2019-12-06 16:00:00 5.4 5 Noroeste 11 Noroeste 0 851.2 -0.8 76
2019-12-06 15:00:00 6 12 Noroeste 14 Noroeste 0 851.5 -1.1 72
2019-12-06 14:00:00 6.5 5 Sudeste 10 Sudeste 0 851.7 -0.8 64
2019-12-06 13:00:00 5.8 10 Sudeste 13 Sur 0 852 -0.3 72
2019-12-06 12:00:00 5.3 11 Noroeste 16 Noroeste 0 852.6 0.9 71
2019-12-06 11:00:00 6.1 8 Noroeste 14 Noroeste 0 852.5 1.1 64
2019-12-06 10:00:00 4.3 3 Sudoeste 15 Noroeste 0 852.3 1.2 72
2019-12-06 09:00:00 3.6 8 Noroeste 18 Noroeste 0 851.7 0.4 75
2019-12-06 08:00:00 3.2 9 Noroeste 14 Noroeste 0 851.4 -0.2 74
2019-12-06 07:00:00 2.1 7 Sudeste 8 Sudeste 0 851.1 -0.4 79
2019-12-06 06:00:00 1.8 4 Sudeste 7 Sur 0 851.3 -0.3 78
2019-12-06 05:00:00 1.7 3 Sur 13 Sur 0 851.6 -0.1 80
2019-12-06 04:00:00 1.5 7 Sur 15 Sur 0 851.5 -0.5 87
2019-12-06 03:00:00 1.3 9 Sudeste 10 Sur 0 851.6 -0.3 88
2019-12-06 02:00:00 1.8 9 Sudeste 14 Sur 0 851.7 -0.2 83
2019-12-06 01:00:00 1.4 11 Sudeste 15 Sudeste 0 852 0.4 87
2019-12-06 00:00:00 1.3 6 Sudeste 18 Sur 0 851.9 0.4 92
2019-12-05 23:00:00 2 12 Sur 18 Sur 0 851.9 0.5 90
2019-12-05 22:00:00 2.3 10 Sudeste 14 Sudeste 0 851.6 0.4 83
2019-12-05 21:00:00 2.8 6 Sur 17 Sur 0 851.5 0.7 83
2019-12-05 20:00:00 2.1 9 Sudeste 13 Sur 0 851.4 0.9 87
2019-12-05 19:00:00 3.3 6 Sur 12 Sudeste 0 851.2 0.9 81
2019-12-05 18:00:00 0.8 4 Noroeste 12 Norte 0 850.8 0.6 92
2019-12-05 17:00:00 1 4 Norte 17 Noroeste 0 850.5 0 94
2019-12-05 16:00:00 3.5 9 Noroeste 17 Noroeste 0 850.3 -0.3 78
2019-12-05 15:00:00 4.1 9 Noroeste 18 Noroeste 0 850.2 -0.8 76
2019-12-05 14:00:00 3.7 10 Norte 18 Noroeste 0 850.5 -0.1 79
2019-12-05 13:00:00 5.8 8 Sur 18 Sur 0 850.6 0.9 67
2019-12-05 12:00:00 5.1 7 Sudeste 16 Sudeste 0 851 1.6 73
2019-12-05 11:00:00 3.7 5 Sudeste 19 Sudeste 0 850.6 2 77
2019-12-05 10:00:00 2.9 13 Sur 22 Sudeste 0 849.7 1.3 76
2019-12-05 09:00:00 0.1 6 Sudeste 16 Oeste 0 849.4 1.4 86
2019-12-05 08:00:00 1 4 Norte 22 Nordeste 0 848.6 0.5 81
2019-12-05 07:00:00 1.6 8 Nordeste 47 Sudeste 0 848.4 0.3 82
2019-12-05 06:00:00 2.1 12 Nordeste 45 Este 0 848 1 81
2019-12-05 05:00:00 1.8 14 Este 41 Sudeste 0 848.1 1.1 82
2019-12-05 04:00:00 1.6 11 Norte 34 Nordeste 0 848.1 1 83
2019-12-05 03:00:00 1 23 Nordeste 35 Nordeste 0 847 0 83
2019-12-05 02:00:00 -1.2 10 Noroeste 19 Noroeste 0 847 0.5 79
2019-12-05 01:00:00 -1.2 14 Noroeste 21 Noroeste 0 847.1 1 78
2019-12-05 00:00:00 -2 12 Noroeste 24 Norte 0 847 1.4 87
2019-12-04 23:00:00 -1.1 14 Noroeste 21 Noroeste 0 846.5 1.6 78
2019-12-04 22:00:00 -1.3 14 Noroeste 23 Noroeste 0 846.1 1.6 83
2019-12-04 21:00:00 -1.8 15 Noroeste 22 Norte 0 845.6 1.4 89
2019-12-04 20:00:00 -0.5 8 Norte 16 Norte 0 844.9 1.2 82
2019-12-04 19:00:00 -1.1 9 Noroeste 18 Norte 0 844.5 1.2 88
2019-12-04 18:00:00 -1.6 14 Noroeste 18 Noroeste 0 844.2 1.4 89
2019-12-04 17:00:00 -1 15 Noroeste 17 Noroeste 0 843.7 0.7 87
2019-12-04 16:00:00 -0.5 15 Noroeste 17 Noroeste 0 843.3 0.3 85
2019-12-04 15:00:00 3.8 4 Sur 14 Norte 0 842.8 -0.6 70
2019-12-04 14:00:00 1.1 14 Noroeste 18 Noroeste 0 843 -0.2 80
2019-12-04 13:00:00 2.4 4 Noroeste 11 Norte 0 843 0 75
2019-12-04 12:00:00 2.7 6 Sudeste 13 Sudeste 0 843.4 0.8 75
2019-12-04 11:00:00 1.6 6 Sudeste 10 Sudeste 0 843.2 0.9 77
2019-12-04 10:00:00 -0.1 8 Sudeste 19 Sur 0 843 1.1 82
2019-12-04 09:00:00 -0.9 15 Sur 24 Sur 0 842.6 0.7 86
2019-12-04 08:00:00 -1.6 12 Sur 29 Sudeste 0 842.3 0.3 90
2019-12-04 07:00:00 -1.5 20 Sudeste 32 Sudeste 0 841.9 -0.3 91
2019-12-04 06:00:00 -2.5 20 Sur 36 Sur 0 841.9 -0.3 91
2019-12-04 05:00:00 -2.5 22 Sur 31 Sur 0 842 -0.4 82
2019-12-04 04:00:00 -2.6 20 Sur 36 Sur 0 842.2 -0.6 78
2019-12-04 03:00:00 -2.7 23 Sur 40 Sudeste 0 842.2 -0.8 77
2019-12-04 02:00:00 -2.7 24 Sur 36 Sur 0 842.4 -0.7 79
2019-12-04 01:00:00 -3.1 22 Sur 32 Sur 0 842.8 -0.8 81
2019-12-04 00:00:00 -4.4 17 Sudeste 24 Sudeste 0 843 -0.6 87
2019-12-03 23:00:00 -3.4 12 Sudeste 30 Sur 0 843.1 -0.3 80
2019-12-03 22:00:00 -2.1 18 Sur 26 Sudeste 0 843.6 0.2 78
2019-12-03 21:00:00 -1.7 16 Sur 22 Sur 0 843.6 0.1 73
2019-12-03 20:00:00 -1.4 0 Calma 5 Noroeste 0 843.4 -0.4 63
2019-12-03 19:00:00 -0.9 0 Calma 8 Sur 0 843.4 -0.5 65
2019-12-03 18:00:00 -0.3 3 Noroeste 14 Noroeste 0 843.5 -0.7 63
2019-12-03 17:00:00 -1.4 9 Norte 18 Noroeste 0 843.8 -1 74
2019-12-03 16:00:00 -1.5 12 Noroeste 17 Noroeste 0 843.9 -1.7 88
2019-12-03 15:00:00 -0.6 13 Norte 16 Norte 0 844.2 -2.3 83
2019-12-03 14:00:00 0.5 5 Noroeste 13 Norte 0 844.8 -1.9 76
2019-12-03 13:00:00 3.2 7 Sudeste 19 Sudeste 0 845.6 -1.1 52
2019-12-03 12:00:00 1.1 11 Sudeste 18 Sudeste 0 846.5 -0.5 67
2019-12-03 11:00:00 0.1 6 Sudeste 12 Sudeste 0 846.7 -0.3 66
2019-12-03 10:00:00 -2.2 10 Sudeste 14 Sudeste 0 846.7 -0.3 68
2019-12-03 09:00:00 -4.7 10 Sudeste 15 Sudeste 0 847 -0.3 78
2019-12-03 08:00:00 -4.7 8 Sudeste 10 Sudeste 0 847 -0.7 82
2019-12-03 07:00:00 -4.1 10 Sudeste 14 Sudeste 0 847 -1.3 81
2019-12-03 06:00:00 -3.5 4 Sur 21 Nordeste 0 847.3 -1.5 77
2019-12-03 05:00:00 -2.4 9 Nordeste 23 Nordeste 0 847.7 -1.3 59
2019-12-03 04:00:00 -3 4 Este 14 Norte 0 848.3 -1 61
2019-12-03 03:00:00 -4.1 8 Noroeste 14 Noroeste 0 848.8 -0.7 77
2019-12-03 02:00:00 -3.9 10 Noroeste 13 Noroeste 0 849 -0.7 77
2019-12-03 01:00:00 -2.4 4 Sur 19 Sur 0 849.3 -0.7 69
2019-12-03 00:00:00 -2.6 5 Sur 16 Sudoeste 0 849.5 -0.6 66
2019-12-02 23:00:00 -2.5 10 Sur 18 Sudoeste 0 849.7 -0.3 76
2019-12-02 22:00:00 -2.2 6 Sudeste 35 Sur 0 850 0.1 79
2019-12-02 21:00:00 -0.7 14 Este 35 Sur 0 850.1 0.6 67
2019-12-02 20:00:00 -0.6 13 Sudeste 36 Sudeste 0 850 0.5 81
2019-12-02 19:00:00 -0.2 10 Sudeste 35 Noroeste 0 849.9 0.6 85
2019-12-02 18:00:00 0 14 Noroeste 37 Noroeste 0 849.5 0.5 86
2019-12-02 17:00:00 0.2 12 Oeste 35 Sudeste 0 849.5 0.2 88
2019-12-02 16:00:00 0.5 9 Nordeste 32 Este 0 849.3 -0.3 90
2019-12-02 15:00:00 1 7 Nordeste 27 Norte 0 849 -0.6 91
2019-12-02 14:00:00 0.6 14 Norte 41 Norte 0.2 849.3 -0.5 93
2019-12-02 13:00:00 0.3 13 Noroeste 42 Noroeste 0 849.6 0.5 95
2019-12-02 12:00:00 0.3 23 Noroeste 40 Noroeste 0 849.6 0.9 94
2019-12-02 11:00:00 0.5 17 Noroeste 31 Noroeste 0 849.8 1.4 93
2019-12-02 10:00:00 0.6 15 Oeste 36 Noroeste 0 849.1 1.3 93
2019-12-02 09:00:00 0.4 15 Noroeste 51 Noroeste 0 848.7 1.2 93
2019-12-02 08:00:00 0.2 19 Oeste 44 Noroeste 0 848.4 1.1 94
2019-12-02 07:00:00 -0.4 14 Noroeste 29 Oeste 0 847.8 0.7 95
2019-12-02 06:00:00 -0.5 10 Noroeste 33 Noroeste 0 847.5 0.4 95
2019-12-02 05:00:00 -0.5 8 Oeste 23 Sudeste 0 847.3 0.5 95
2019-12-02 04:00:00 -0.7 9 Noroeste 17 Norte 0 847.1 1.3 95
2019-12-02 03:00:00 -0.8 8 Noroeste 34 Norte 0.2 847.1 1.5 95
2019-12-02 02:00:00 -0.9 16 Noroeste 41 Noroeste 0.2 846.8 1.1 95
2019-12-02 01:00:00 -0.9 23 Noroeste 53 Noroeste 0 845.8 0.5 96
2019-12-02 00:00:00 -0.9 23 Noroeste 48 Noroeste 0 845.6 0.4 96
2019-12-01 23:00:00 -0.9 21 Noroeste 47 Oeste 0.2 845.7 0.8 96
2019-12-01 22:00:00 -0.8 27 Noroeste 55 Noroeste 0.2 845.3 0.8 96
2019-12-01 21:00:00 -0.4 33 Noroeste 59 Noroeste 0.8 845.2 1.5 96
2019-12-01 20:00:00 0.1 29 Noroeste 49 Noroeste 1.2 844.9 1.5 95
2019-12-01 19:00:00 0.2 21 Noroeste 41 Noroeste 1.2 844.5 1.4 95
2019-12-01 18:00:00 0.6 20 Noroeste 37 Noroeste 0.6 843.7 0.9 95
2019-12-01 17:00:00 1.2 17 Noroeste 33 Noroeste 0 843.4 0.7 92
2019-12-01 16:00:00 1.4 16 Noroeste 38 Noroeste 0 843.1 0.5 89
2019-12-01 15:00:00 1.6 25 Noroeste 44 Norte 0 842.8 0.3 90
2019-12-01 14:00:00 2 15 Noroeste 29 Noroeste 0 842.7 1.1 91
2019-12-01 13:00:00 2.1 12 Noroeste 21 Noroeste 0.2 842.6 1.7 93
2019-12-01 12:00:00 1.6 12 Noroeste 30 Noroeste 0 842.5 2.5 93
2019-12-01 11:00:00 1.3 13 Oeste -- -- 0 841.6 2.4 94
2019-12-01 10:00:00 1.2 -- -- -- -- 0 840.9 2.6 95
2019-12-01 09:00:00 0.6 7 Noroeste 10 Noroeste 0 840 1.9 94
2019-12-01 08:00:00 1 3 Sur 17 Sur 0 839.2 1 92
2019-12-01 07:00:00 0.8 12 Sudeste 25 Sudeste 0 838.3 0 93
2019-12-01 06:00:00 0.8 17 Sudeste 31 Sudeste 0 838.1 -0.9 93
2019-12-01 05:00:00 0.5 16 Sudeste 29 Sudeste 0 838.2 -1.1 93
2019-12-01 04:00:00 0.3 18 Sudeste 26 Sudeste 0.2 838.3 -1.6 95
2019-12-01 03:00:00 0.7 19 Sudeste 32 Sudeste 0 839 -1.5 93
2019-12-01 02:00:00 0.9 17 Sudeste 33 Sudeste 0 839.3 -2 92
2019-12-01 01:00:00 1.1 21 Sudeste 37 Sudeste 0 839.9 -1.9 91
2019-12-01 00:00:00 1 15 Sudeste 26 Sudeste 0 840.5 -1.6 93
2019-11-30 23:00:00 1.3 6 Este 36 Sudeste 0 841.3 -1.4 87
2019-11-30 22:00:00 1 14 Sudeste 26 Sudeste 0 841.8 -0.7 91
2019-11-30 21:00:00 1.3 4 Sudeste 21 Sudeste 0 842.1 -0.8 87
2019-11-30 20:00:00 1.3 14 Sudeste 52 Noroeste 0 842.7 -0.4 86
2019-11-30 19:00:00 1.9 22 Norte 58 Noroeste 0 842.5 -0.6 77
2019-11-30 18:00:00 1.8 23 Norte 49 Noroeste 0 842.9 -0.3 82
2019-11-30 17:00:00 2.6 25 Noroeste 50 Noroeste 0 843.1 -0.3 73
2019-11-30 16:00:00 2.6 24 Noroeste 67 Noroeste 0 843.1 -1.1 73
2019-11-30 15:00:00 3.1 27 Noroeste 66 Norte 0 843.2 -1.8 65
2019-11-30 14:00:00 3.1 19 Noroeste 57 Noroeste 0 843.4 -1.3 71
2019-11-30 13:00:00 3 23 Noroeste 66 Noroeste 0 844.2 -0.6 73
2019-11-30 12:00:00 2.9 27 Noroeste -- -- 0.2 845 0.4 80
2019-11-30 11:00:00 4 30 Noroeste 68 Norte 0.2 844.7 0.9 82
2019-11-30 10:00:00 3.6 24 Noroeste 69 Norte 0.4 844.8 0.5 89
2019-11-30 09:00:00 4.8 16 Noroeste 37 Noroeste 2.6 844.6 -0.1 92
2019-11-30 08:00:00 6.4 9 Nordeste 39 Noroeste 0.6 843.8 -1.1 87
2019-11-30 07:00:00 6.9 19 Noroeste 41 Noroeste 1 844.3 -1.3 83
2019-11-30 06:00:00 6.6 7 Noroeste 39 Sudeste 5.4 844.7 -1.4 91
2019-11-30 05:00:00 6.4 14 Sudeste 37 Sudeste 0.2 844.9 -2.1 91
2019-11-30 04:00:00 6.3 18 Sudeste 45 Sudeste 0.2 845.6 -1.8 93
2019-11-30 03:00:00 5.6 12 Sudeste 25 Este 0 846.1 -2 94
2019-11-30 02:00:00 4.6 8 Sudeste 15 Sudeste 0.2 847 -1.6 95
2019-11-30 01:00:00 3.6 6 Sudeste 17 Sudeste 0 847.4 -1.7 92
2019-11-30 00:00:00 3.3 8 Sudeste 15 Sudeste 0 848.1 -1 85
2019-11-29 23:00:00 3.8 4 Sudeste 13 Sur 0 848.6 -0.6 82
2019-11-29 22:00:00 3.8 3 Sudeste 12 Sudeste 0 849.1 -0.3 80
2019-11-29 21:00:00 5 8 Sudeste 15 Sur 0 849.1 -0.4 72
2019-11-29 20:00:00 4.5 10 Sur 16 Sudeste 0 849.2 0 73
2019-11-29 19:00:00 4.4 7 Sudeste 13 Sudeste 0 849.4 0.4 67
2019-11-29 18:00:00 4.7 5 Sudeste 12 Sur 0 849.5 0.2 64
2019-11-29 17:00:00 5 4 Sur 12 Sudeste 0 849.2 -0.3 65
2019-11-29 16:00:00 5.6 7 Sudeste 14 Sur 0 849 -0.8 66
2019-11-29 15:00:00 7.2 9 Sudeste 17 Sur 0 849.3 -0.7 61
2019-11-29 14:00:00 6.8 9 Sudeste 17 Sudeste 0 849.5 -0.2 64
2019-11-29 13:00:00 6.3 8 Sudeste 21 Sudeste 0 849.8 0.6 70
2019-11-29 12:00:00 5.6 6 Sur 10 Sudeste 0 850 1.3 65
2019-11-29 11:00:00 6.1 5 Sudeste 8 Sudeste 0 849.7 1.6 64
2019-11-29 10:00:00 4 5 Sudeste 8 Sur 0 849.2 1.4 70
2019-11-29 09:00:00 1.4 3 Sudeste 7 Sur 0 848.7 1.3 77
2019-11-29 08:00:00 1.6 3 Noroeste 15 Norte 0 848.1 1.1 75
2019-11-29 07:00:00 2.9 8 Noroeste 19 Noroeste 0 847.8 0.9 65
2019-11-29 06:00:00 3.6 11 Noroeste 18 Norte 0 847.4 1.1 59
2019-11-29 05:00:00 3 11 Noroeste 15 Noroeste 0 847 0.9 71
2019-11-29 04:00:00 3.2 6 Noroeste 10 Noroeste 0 846.9 1 82
2019-11-29 03:00:00 3.3 4 Oeste 21 Noroeste 0 846.3 1.1 83
2019-11-29 02:00:00 4 8 Noroeste 26 Oeste 0 846.1 1.2 85
2019-11-29 01:00:00 4.1 12 Noroeste 19 Noroeste 0 845.9 1.3 93
2019-11-29 00:00:00 4.6 8 Noroeste 21 Noroeste 0 845.2 1.3 94
2019-11-28 23:00:00 4.7 10 Noroeste 18 Noroeste 0.2 844.9 2.1 92
2019-11-28 22:00:00 5.8 6 Noroeste 37 Noroeste 0 844.6 2.6 90
2019-11-28 21:00:00 6.5 17 Noroeste 40 Oeste 0 843.9 2.4 89
2019-11-28 20:00:00 6.8 15 Noroeste 42 Noroeste 0.4 842.8 1.4 90
2019-11-28 19:00:00 6.5 15 Oeste 39 Noroeste 2 842 0.4 88
2019-11-28 18:00:00 5.6 8 Este 32 Noroeste 0.6 841.5 -0.4 90
2019-11-28 17:00:00 5.6 12 Noroeste 39 Noroeste 0.8 841.4 -0.5 87
2019-11-28 16:00:00 5.1 22 Noroeste 48 Noroeste 0.6 841.6 -0.9 86
2019-11-28 15:00:00 4.6 8 Norte 32 Sudeste 0.6 841.9 -0.8 84
2019-11-28 14:00:00 5.5 9 Este 46 Norte 0.2 841.9 -1.3 84
2019-11-28 13:00:00 5.7 22 Noroeste 56 Noroeste 1 842.5 -0.3 85
2019-11-28 12:00:00 6 8 Sudeste 27 Noroeste 0 842.7 0.6 88
2019-11-28 11:00:00 6.1 15 Noroeste 42 Noroeste 0 843.2 1.1 83
2019-11-28 10:00:00 6.2 11 Norte 55 Noroeste 0 842.8 1 84
2019-11-28 09:00:00 6.3 16 Oeste 55 Noroeste 0 842.1 0.5 85
2019-11-28 08:00:00 6.1 13 Noroeste 45 Noroeste 0 842.1 1.1 85
2019-11-28 07:00:00 6 8 Sur 58 Noroeste 0 841.8 0.9 88
2019-11-28 06:00:00 5.8 23 Noroeste 49 Noroeste 0 841.6 0.6 88
2019-11-28 05:00:00 6.3 18 Noroeste 68 Noroeste 0 841 -0.3 85
2019-11-28 04:00:00 5.6 28 Noroeste 70 Noroeste 0 840.9 -0.2 88
2019-11-28 03:00:00 4.9 29 Noroeste 58 Oeste 0 841 0.2 88
2019-11-28 02:00:00 4.2 15 Noroeste 60 Noroeste 0.2 841.3 0.4 88
2019-11-28 01:00:00 4.3 23 Noroeste 73 Oeste 0.2 841.1 0.7 90
2019-11-28 00:00:00 4.3 22 Noroeste 54 Norte 0 840.8 0.7 88
2019-11-27 23:00:00 4 22 Noroeste 42 Oeste 0.2 840.9 1 87
2019-11-27 22:00:00 3.7 21 Noroeste 51 Noroeste 0 840.4 0.4 89
2019-11-27 21:00:00 3.6 23 Noroeste 48 Noroeste 1.6 840.1 0.6 89
2019-11-27 20:00:00 3.2 22 Noroeste 59 Noroeste 0.4 839.9 0.9 90
2019-11-27 19:00:00 2.9 19 Noroeste 40 Noroeste 0.8 840 0.7 87
2019-11-27 18:00:00 2.8 19 Noroeste 54 Noroeste 0.2 839.5 0.2 88
2019-11-27 17:00:00 2.9 26 Noroeste 65 Oeste 0.6 839 -0.3 87
2019-11-27 16:00:00 2.2 17 Noroeste 54 Noroeste 1.4 839.3 -0.3 88
2019-11-27 15:00:00 2.7 26 Noroeste 62 Noroeste 0.8 839.3 -0.7 87
2019-11-27 14:00:00 3.1 26 Noroeste 71 Noroeste 0.4 839.3 -0.2 84
2019-11-27 06:00:00 -- -- -- -- -- -- -- -- --
2019-11-27 05:00:00 3.3 29 Noroeste 73 Noroeste 0 837.8 1.5 79
2019-11-27 04:00:00 3.3 36 Noroeste 82 Noroeste 0 836.8 0.9 86
2019-11-27 03:00:00 3.4 34 Noroeste 82 Noroeste 0.6 836.3 0.8 82
2019-11-27 02:00:00 2.3 29 Noroeste 93 Noroeste 0.8 836.3 0.9 88
2019-11-27 01:00:00 2.8 35 Noroeste 79 Oeste 0 835.9 1 83
2019-11-27 00:00:00 2.7 36 Noroeste 75 Noroeste 0 835.5 0.3 81
2019-11-26 23:00:00 2.4 31 Noroeste 77 Noroeste 0 835.4 0.9 83
2019-11-26 22:00:00 2.8 35 Norte 79 Noroeste 0 834.9 0.9 81
2019-11-26 21:00:00 3.3 15 Norte 111 Norte 0 835.2 2.3 76
2019-11-26 20:00:00 3.8 42 Noroeste 99 Noroeste 1.8 834.5 1 72
2019-11-26 19:00:00 3.9 21 Noroeste 60 Noroeste 2.2 834 0.4 87
2019-11-26 18:00:00 4.5 19 Norte 82 Noroeste 2 832.9 -1.5 87
2019-11-26 17:00:00 5.2 24 Este 76 Sudeste 1 833.5 -2.4 87
2019-11-26 16:00:00 5.5 30 Sudeste 81 Sudeste 0 833.6 -3.2 81
2019-11-26 15:00:00 5.8 33 Sudeste 70 Sudeste 0 834.4 -3.2 75
2019-11-26 14:00:00 5.6 35 Sudeste 87 Sudeste 0 835.9 -2.2 78
2019-11-26 13:00:00 5.6 38 Sudeste 100 Sudeste 0 836.8 -1.5 78
2019-11-26 12:00:00 5.4 45 Sudeste 90 Sudeste 0 837.6 -0.9 79
2019-11-26 11:00:00 5.7 42 Sudeste 86 Sudeste 0 838.1 -0.8 77
2019-11-26 10:00:00 5.9 37 Sudeste 90 Sudeste 0.2 838.3 -1 83
2019-11-26 09:00:00 6.1 25 Sudeste 83 Sudeste 0 838.5 -1.3 87
2019-11-26 08:00:00 6 32 Sudeste 70 Sudeste 0 838.9 -1.1 93
2019-11-26 07:00:00 6 26 Sudeste 74 Sur 0.2 839.3 -1.9 93
2019-11-26 06:00:00 6.3 34 Sudeste 70 Sudeste 0 839.8 -1.9 92
2019-11-26 05:00:00 6.3 30 Sudeste 69 Sudeste 0 840 -2.3 93
2019-11-26 04:00:00 6.1 21 Sudeste 55 Sudeste 0 841.2 -2.1 95
2019-11-26 03:00:00 5.2 24 Sudeste 59 Sur 0 841.7 -1.9 96
2019-11-26 02:00:00 4.3 21 Sudeste 39 Sudeste 0 842.3 -1.7 95
2019-11-26 01:00:00 4.5 9 Sur 37 Sudeste 0 843.3 -0.9 88
2019-11-26 00:00:00 3.7 14 Sur 27 Sudeste 0 843.6 -0.6 87
2019-11-25 23:00:00 3.2 12 Sudeste 23 Sur 0 844 -0.5 88
2019-11-25 22:00:00 3.8 14 Sudeste 28 Sudoeste 0 844.2 -0.5 85
2019-11-25 21:00:00 3.6 19 Sur 27 Sur 0 844.2 -0.1 90
2019-11-25 20:00:00 3.2 12 Sudeste 18 Este 0 844.5 0.5 92
2019-11-25 19:00:00 3.1 6 Sudeste 18 Sudeste 0 844.7 1.1 91
2019-11-25 18:00:00 3.4 10 Sudeste 16 Sur 0 844.3 0.8 89
2019-11-25 17:00:00 4 6 Sudeste 14 Sur 0 844 0.6 88
2019-11-25 16:00:00 4.1 8 Sudeste 26 Sur 0 843.6 0.1 86
2019-11-25 15:00:00 4.6 9 Sur 29 Sudeste 0 843.5 0 84
2019-11-25 14:00:00 5.3 11 Sur 36 Oeste 0 843.4 0.4 82
2019-11-25 13:00:00 5.1 14 Sudoeste 28 Sudoeste 0 843.5 1 83
2019-11-25 12:00:00 4.9 9 Noroeste 39 Oeste 0 843.5 1.5 85
2019-11-25 11:00:00 4.8 5 Este 39 Noroeste 0 843 1.1 86
2019-11-25 10:00:00 4.4 18 Noroeste 48 Noroeste 0 842.5 1.4 86
2019-11-25 09:00:00 4.2 21 Noroeste 49 Noroeste 0 842 1.7 89
2019-11-25 08:00:00 3.9 23 Noroeste 53 Oeste 0 841.9 1.7 86
2019-11-25 07:00:00 4.3 24 Noroeste 57 Noroeste 0 841.1 0.9 89
2019-11-25 06:00:00 5.2 26 Norte 79 Noroeste 0 840.3 0.1 85
2019-11-25 05:00:00 4.5 30 Norte 86 Noroeste 0 840.2 0.6 90
2019-11-25 04:00:00 4.7 30 Noroeste 78 Norte 0 840.2 0.3 88
2019-11-25 03:00:00 4.7 18 Noroeste 71 Noroeste 0 840.2 0.8 91
2019-11-25 02:00:00 5.2 33 Noroeste 80 Noroeste 0 839.6 -0.5 84
2019-11-25 01:00:00 4.5 30 Noroeste 80 Noroeste 0 839.9 -0.1 91
2019-11-25 00:00:00 2.3 37 Noroeste 69 Norte 0.2 839.4 -0.6 94
2019-11-24 23:00:00 1.3 5 Sur 15 Sudeste 0 840.1 0.4 94
2019-11-24 22:00:00 1.1 7 Sudeste 21 Sudeste 0.2 840 -0.1 94
2019-11-24 21:00:00 0.9 8 Sur 26 Oeste 0.2 840 0.1 95
2019-11-24 20:00:00 1 18 Sudeste 48 Sudeste 1 839.7 -1.3 96
2019-11-24 19:00:00 0.6 20 Sudeste 43 Sudeste 1.6 840.1 -0.7 96
2019-11-24 18:00:00 0 21 Sudeste 39 Sudeste 0.2 839.9 -1.4 96
2019-11-24 17:00:00 0 23 Sudeste 50 Sudeste 0 841 -0.8 96
2019-11-24 16:00:00 0 22 Sudeste 41 Sudeste 0 840.8 -1.5 96
2019-11-24 15:00:00 0 18 Sudeste 31 Sudeste 0 841.3 -1.8 96
2019-11-24 14:00:00 0 16 Sudeste 24 Sur 0.2 841.8 -1.7 96
2019-11-24 13:00:00 0 13 Sur 24 Sudeste 0 842.3 -0.5 96
2019-11-24 12:00:00 -0.1 15 Sudeste 18 Sudeste 0 843.1 0.5 96
2019-11-24 11:00:00 -0.1 10 Sudeste 20 Sudeste 0 843.5 1.2 96
2019-11-24 10:00:00 -0.2 9 Sudeste 18 Este 0 842.8 1.1 96
2019-11-24 09:00:00 -0.4 6 Sudoeste 27 Oeste 0 842.6 0.4 96
2019-11-24 08:00:00 -0.8 17 Oeste 42 Oeste 0 842.3 0.2 96
2019-11-24 07:00:00 -0.9 16 Noroeste 37 Oeste 0 841.7 0 96
2019-11-24 06:00:00 -0.4 12 Noroeste 36 Noroeste 0 842.2 0.7 96
2019-11-24 05:00:00 -0.1 19 Noroeste 32 Noroeste 0 842.1 0.8 96
2019-11-24 04:00:00 0 21 Noroeste 34 Noroeste 0 841.7 0.8 96
2019-11-24 03:00:00 0 21 Noroeste 32 Norte 0 841.5 0.7 96
2019-11-24 02:00:00 0 22 Noroeste 39 Noroeste 0 841.3 0.7 96
2019-11-24 01:00:00 0 24 Noroeste 38 Noroeste 0 840.9 0.5 96
2019-11-24 00:00:00 0 21 Noroeste 37 Noroeste 0 840.8 1.2 96
2019-11-23 23:00:00 0 27 Noroeste 44 Noroeste 0 840.6 1 96
2019-11-23 22:00:00 0 30 Noroeste 46 Noroeste 0 840.4 1.4 96
2019-11-23 21:00:00 0 34 Noroeste 59 Noroeste 0 839.6 1.3 96
2019-11-23 20:00:00 0 18 Noroeste 40 Noroeste 0.2 839.6 1.7 96
2019-11-23 19:00:00 0 12 Noroeste 32 Noroeste 0.2 839 1.8 96
2019-11-23 18:00:00 0 23 Noroeste 46 Noroeste 0 838.3 1.9 96
2019-11-23 17:00:00 0 30 Noroeste 53 Noroeste 0 837.9 1.8 96
2019-11-23 16:00:00 0 13 Noroeste 33 Noroeste 1.6 837.2 1.9 96
2019-11-23 15:00:00 0 28 Noroeste 41 Noroeste 0.6 836.4 1.7 96
2019-11-23 14:00:00 0 25 Noroeste 50 Noroeste 0.4 836.1 2.8 96
2019-11-23 13:00:00 -0.1 36 Noroeste 61 Noroeste 0.2 835.3 3.3 96
2019-11-23 12:00:00 -0.2 37 Noroeste 65 Noroeste 0 834.7 4.3 96
2019-11-23 11:00:00 -0.3 39 Noroeste 75 Noroeste 0.2 833.3 3.6 96
2019-11-23 10:00:00 -0.6 45 Noroeste 78 Noroeste 0 832 3.5 96
2019-11-23 09:00:00 -0.6 61 Noroeste 89 Noroeste 0 830.4 3.3 96
2019-11-23 08:00:00 -0.9 43 Noroeste 86 Noroeste 0 829.7 3.7 96
2019-11-23 07:00:00 -1.1 43 Noroeste 82 Noroeste 0 828.5 2.9 96
2019-11-23 06:00:00 -1.2 54 Noroeste 102 Noroeste 0 827.1 2.4 96
2019-11-23 05:00:00 -1 57 Noroeste 93 Noroeste 0 826 2.4 96
2019-11-23 04:00:00 -0.4 37 Noroeste 57 Noroeste 0.8 825.6 3.3 96
2019-11-23 03:00:00 -0.3 24 Noroeste 38 Noroeste 3 824.7 3.3 95
2019-11-23 02:00:00 -0.2 23 Noroeste 36 Noroeste 2 823.6 3.4 95
2019-11-23 01:00:00 0.1 26 Noroeste 45 Noroeste 3 822.3 2.3 95
2019-11-23 00:00:00 0.2 21 Noroeste 40 Noroeste 3.2 821.4 2.2 94
2019-11-22 23:00:00 1.4 23 Noroeste 50 Oeste 3 820.2 1.3 89
2019-11-22 22:00:00 2.1 30 Noroeste 73 Oeste 3.4 820 1.3 87
2019-11-22 21:00:00 2.1 31 Noroeste 66 Noroeste 2.4 819.2 1 88
2019-11-22 20:00:00 2.3 31 Noroeste 82 Noroeste 1.2 818.9 0 88
2019-11-22 19:00:00 2.3 32 Noroeste 70 Noroeste 1.4 818.7 -0.3 87
2019-11-22 18:00:00 1 18 Sudeste 39 Noroeste 0.8 818.2 -0.9 92
2019-11-22 17:00:00 2.1 14 Noroeste 77 Noroeste 0 818.9 -0.3 87
2019-11-22 16:00:00 2.3 14 Oeste 73 Noroeste 0 819 -0.6 85
2019-11-22 15:00:00 2 24 Noroeste 71 Norte 1.6 819.1 -1.1 89
2019-11-22 14:00:00 2.9 22 Noroeste 55 Noroeste 1.2 819.2 -2.4 90
2019-11-22 13:00:00 3.8 14 Este 77 Sudeste 1.4 819.6 -2.1 91
2019-11-22 12:00:00 3.6 32 Sudeste 65 Sudeste 0 820.2 -2.8 90
2019-11-22 11:00:00 2.2 15 Sudeste 31 Sudeste 1.2 821.6 -2.6 96
2019-11-22 10:00:00 1.5 16 Sudeste 34 Sudeste 1.4 821.7 -3.6 96
2019-11-22 09:00:00 1 15 Sudeste 35 Sudeste 0 823 -3.5 96
2019-11-22 08:00:00 0.4 22 Sudeste 41 Sudeste 0.4 824.2 -3.4 95
2019-11-22 07:00:00 0.1 18 Sudeste 29 Sudeste 1.4 825.3 -3.8 96
2019-11-22 06:00:00 0 17 Sudeste 34 Sudeste 0.8 826.5 -3.8 95
2019-11-22 05:00:00 -0.3 23 Sudeste 35 Sudeste 0.6 827.6 -3.6 95
2019-11-22 04:00:00 -0.1 20 Sudeste 36 Sudeste 0.2 829.1 -3.2 94
2019-11-22 03:00:00 -0.1 25 Sudeste 40 Sudeste 0 830.3 -3 93
2019-11-22 02:00:00 0.4 19 Sudeste 44 Sudeste 0 831.2 -2.4 89
2019-11-22 01:00:00 0 22 Sudeste 36 Sudeste 0 832.3 -1.8 91
2019-11-22 00:00:00 0.1 10 Sudeste 35 Sur 0 833.3 -0.9 88
2019-11-21 23:00:00 0.1 14 Sudeste 44 Sur 0 833.6 -1 88
2019-11-21 22:00:00 0.5 20 Sudeste 43 Sudeste 0 834.1 -0.9 87
2019-11-21 21:00:00 0.5 21 Sudeste 46 Sur 0 834.2 -0.8 87
2019-11-21 20:00:00 0.6 22 Sudeste 45 Sudeste 0 834.6 0.1 86
2019-11-21 19:00:00 0.2 18 Sudeste 40 Sudeste 0 835 0 89
2019-11-21 18:00:00 0.3 16 Sudeste 40 Sudeste 0 835 0 85
2019-11-21 17:00:00 -0.1 15 Sudeste 35 Sudeste 0 834.5 -0.5 82
2019-11-21 16:00:00 1 13 Sudeste 28 Sudeste 0 835 -0.2 82
2019-11-21 15:00:00 1.1 18 Sudeste 34 Sudeste 0 835 -0.6 81
2019-11-21 14:00:00 0.7 6 Norte 50 Noroeste 0 835 -0.2 80
2019-11-21 13:00:00 0.4 19 Noroeste 42 Noroeste 0 835.2 0 80
2019-11-21 12:00:00 0.8 8 Noroeste 40 Oeste 0 835.6 0.7 85
2019-11-21 11:00:00 0 17 Noroeste 42 Noroeste 0 835.2 0.8 86
2019-11-21 10:00:00 -0.2 15 Noroeste 34 Noroeste 0 835.2 0.9 88
2019-11-21 09:00:00 -1 14 Noroeste 55 Noroeste 0 834.9 0.9 88
2019-11-21 08:00:00 -1.1 28 Norte 55 Noroeste 0 834.4 0.4 85
2019-11-21 07:00:00 -0.9 12 Noroeste 40 Noroeste 0 834.3 0.4 92
2019-11-21 06:00:00 -0.3 14 Noroeste 33 Noroeste 0 834 0.3 91
2019-11-21 05:00:00 -0.2 16 Noroeste 45 Noroeste 0.2 834 0.1 90
2019-11-21 04:00:00 0 7 Sudeste 22 Norte 0 833.9 -0.3 94
2019-11-21 03:00:00 0 6 Nordeste 31 Sudeste 0.2 833.7 -0.5 94
2019-11-21 02:00:00 0.1 15 Sudeste 28 Sudeste 0 833.9 -0.7 95
2019-11-21 01:00:00 0.1 13 Sudeste 45 Sudeste 0 834.2 -0.3 93
2019-11-21 00:00:00 0.2 22 Sudeste 40 Sudeste 0 834.2 -0.5 93
2019-11-20 23:00:00 0.1 15 Sudeste 44 Sudeste 0 834.6 0 93
2019-11-20 22:00:00 0.2 12 Sudeste 28 Sudeste 0 834.5 0.1 94
2019-11-20 21:00:00 0.3 12 Sudeste 35 Sudeste 0 834.7 0.3 94
2019-11-20 20:00:00 0.4 13 Sudeste 27 Este 0.4 834.6 -0.1 95
2019-11-20 19:00:00 0.3 12 Sudeste 30 Sudeste 0 834.4 -0.5 94
2019-11-20 18:00:00 0.5 10 Sudeste 36 Sur 0 834.4 -0.9 92
2019-11-20 17:00:00 0.6 6 Este 24 Sudeste 0 834.7 -0.7 92
2019-11-20 16:00:00 0.7 13 Sudeste 30 Sudeste 0 834.9 -1.2 92
2019-11-20 15:00:00 1 14 Sudeste 34 Sudeste 0 835.3 -1.4 93
2019-11-20 14:00:00 0.6 13 Sudeste 22 Sudeste 0 835.4 -1.6 95
2019-11-20 13:00:00 0.7 9 Sudeste 13 Sudeste 0 836.1 -1.1 95
2019-11-20 12:00:00 0.5 9 Sudeste 15 Sudeste 0 836.7 -0.3 95
2019-11-20 11:00:00 0.4 9 Sudeste 14 Sudeste 0 837 -0.2 96
2019-11-20 10:00:00 0.2 7 Este 15 Sudeste 0 837.2 -0.5 96
2019-11-20 09:00:00 0 11 Sudeste 18 Sudeste 0 837 -0.9 96
2019-11-20 08:00:00 0 6 Sudeste 9 Sudeste 0 837.2 -1 96
2019-11-20 07:00:00 0 3 Sur 17 Sudeste 0 837.7 -1.1 96
2019-11-20 06:00:00 -0.1 15 Sudeste 31 Sudeste 0 837.9 -1.2 96
2019-11-20 05:00:00 -0.1 12 Sur 17 Sudeste 0 838.2 -1.6 96
2019-11-20 04:00:00 -0.2 14 Sudeste 18 Sudeste 0 838.8 -1.6 96
2019-11-20 03:00:00 -0.1 10 Sudeste 21 Sur 0 839.1 -1.9 96
2019-11-20 02:00:00 -0.3 11 Sudeste 18 Sudeste 0 839.8 -1.9 96
2019-11-20 01:00:00 -0.2 5 Sudeste 12 Sur 0 840.4 -1.6 96
2019-11-20 00:00:00 -0.2 8 Sudeste 12 Sudeste 0 841 -1.1 95
2019-11-19 23:00:00 -0.3 8 Sudeste 13 Sur 0 841.7 -0.7 95
2019-11-19 22:00:00 -0.7 11 Sudeste 14 Sudeste 0 842 -0.5 95
2019-11-19 21:00:00 -0.5 11 Sudeste 17 Sudeste 0 842.1 -0.6 94
2019-11-19 20:00:00 -0.4 13 Sudeste 19 Sur 0 842.4 -0.4 91
2019-11-19 19:00:00 -0.4 11 Sudeste 17 Sudeste 0 842.5 -0.4 91
2019-11-19 18:00:00 -0.2 10 Sudeste 14 Sudeste 0 842.7 -0.6 88
2019-11-19 17:00:00 0 12 Sur 17 Sudeste 0 842.8 -1.1 86
2019-11-19 16:00:00 0.2 11 Sur 18 Sudeste 0 842.9 -1.3 86
2019-11-19 15:00:00 0.5 11 Sudeste 19 Sur 0 843.3 -1.5 86
2019-11-19 14:00:00 0.4 11 Sudeste 16 Sudeste 0 843.9 -1.1 87
2019-11-19 13:00:00 -0.1 13 Sudeste 16 Sudeste 0 844.2 -0.9 89
2019-11-19 12:00:00 -1.3 9 Sudeste 15 Sudeste 0 844.8 -0.3 90
2019-11-19 11:00:00 -1.7 10 Sudeste 14 Sudeste 0 845 0.1 91
2019-11-19 10:00:00 -3.1 10 Sudeste 16 Sudeste 0 845.1 0.2 91
2019-11-19 09:00:00 -4 9 Sudeste 13 Sur 0 845.1 0 93
2019-11-19 08:00:00 -3.8 10 Sur 13 Sudeste 0 844.9 -0.4 93
2019-11-19 07:00:00 -3.8 9 Sur 15 Sur 0 844.9 -0.7 92
2019-11-19 06:00:00 -4.1 8 Sur 15 Sur 0 845.1 -0.5 92
2019-11-19 05:00:00 -4 11 Sur 14 Sur 0 845.3 -0.6 92
2019-11-19 04:00:00 -4.4 8 Sudeste 13 Sur 0 845.6 -0.6 92
2019-11-19 03:00:00 -3.7 6 Sudeste 15 Sur 0 845.6 -1.1 93
2019-11-19 02:00:00 -3.7 6 Sudeste 11 Sur 0 845.9 -0.8 94
2019-11-19 01:00:00 -3.7 8 Sudeste 13 Sur 0 846.2 -0.8 94
2019-11-19 00:00:00 -3.3 10 Sudeste 12 Sudeste 0 846.7 -0.6 95
2019-11-18 23:00:00 -2.8 8 Sudeste 17 Sur 0 846.7 -0.2 95
2019-11-18 22:00:00 -2.7 9 Sur 13 Sur 0 847 0.4 95
2019-11-18 21:00:00 -1.2 6 Noroeste 7 Noroeste 0 847.3 0.8 96
2019-11-18 20:00:00 -0.5 4 Oeste 10 Noroeste 0 846.9 0.4 96
2019-11-18 19:00:00 -0.3 4 Noroeste 14 Noroeste 0 846.6 0.5 96
2019-11-18 18:00:00 -0.3 10 Noroeste 18 Noroeste 0 846.5 0.3 96
2019-11-18 17:00:00 -0.2 13 Noroeste 28 Noroeste 0 846.5 0.4 96
2019-11-18 16:00:00 -0.1 18 Noroeste 27 Noroeste 0 846.1 -0.1 96
2019-11-18 15:00:00 0.1 20 Noroeste 26 Noroeste 0 846.2 -0.2 96
2019-11-18 14:00:00 0.2 12 Noroeste 23 Oeste 0 846.1 -0.1 95
2019-11-18 13:00:00 0.2 14 Noroeste 22 Noroeste 0 846.2 0.6 95
2019-11-18 12:00:00 -0.1 20 Noroeste 30 Noroeste 0 846.4 1.2 96
2019-11-18 11:00:00 -0.4 23 Noroeste 36 Noroeste 0 846.2 1.7 96
2019-11-18 10:00:00 -0.7 21 Noroeste 40 Oeste 0 845.6 1.4 96
2019-11-18 09:00:00 -1 22 Noroeste 41 Noroeste 0.2 845.2 1.7 96
2019-11-18 08:00:00 -1.3 22 Noroeste 37 Noroeste 0.4 844.5 1.3 96
2019-11-18 07:00:00 -1.1 23 Noroeste 41 Noroeste 0.4 844.2 1.3 96
2019-11-18 06:00:00 -1.2 26 Noroeste 37 Noroeste 0 843.5 0.9 96
2019-11-18 05:00:00 -1.4 22 Noroeste 36 Noroeste 0.2 843.2 0.8 96
2019-11-18 04:00:00 -1.6 21 Noroeste 40 Noroeste 0.4 842.9 0.8 96
2019-11-18 03:00:00 -1 23 Noroeste 48 Oeste 0.2 842.6 1.1 96
2019-11-18 02:00:00 -1 27 Noroeste 52 Noroeste 0.2 842.4 0.8 96
2019-11-18 01:00:00 -1 30 Noroeste 49 Noroeste 0.2 842.1 0.9 96
2019-11-18 00:00:00 -1.3 27 Noroeste 46 Noroeste 0 841.5 0.6 96
2019-11-17 23:00:00 -1.6 29 Noroeste 46 Noroeste 0.2 841.6 1.1 96
2019-11-17 22:00:00 -1.1 30 Noroeste 43 Noroeste 0.4 841.2 0.9 96
2019-11-17 21:00:00 -0.8 31 Noroeste 47 Noroeste 0.8 840.9 0.8 96
2019-11-17 20:00:00 -0.6 27 Noroeste 48 Noroeste 0.4 840.5 0.3 96
2019-11-17 19:00:00 -0.3 25 Noroeste 38 Noroeste 0 840.3 -0.1 96
2019-11-17 18:00:00 -0.3 20 Noroeste 38 Noroeste 0 840.1 0 95
2019-11-17 17:00:00 -0.3 18 Noroeste 29 Noroeste 0 840.2 -0.1 94
2019-11-17 16:00:00 -0.1 19 Noroeste 42 Norte 0 840.4 -0.2 95
2019-11-17 15:00:00 0.1 22 Noroeste 50 Noroeste 0 840.1 -0.9 95
2019-11-17 14:00:00 0.5 23 Noroeste 41 Noroeste 0 840.3 -0.7 96
2019-11-17 13:00:00 0.7 24 Noroeste 44 Norte 0 840.6 -0.4 96
2019-11-17 12:00:00 0.8 28 Noroeste 55 Noroeste 0.4 841 0 96
2019-11-17 11:00:00 1.2 23 Noroeste 36 Noroeste 0.2 841 0.2 96
2019-11-17 10:00:00 1.5 14 Noroeste 30 Noroeste 0 841 0.1 96
2019-11-17 09:00:00 1.4 11 Noroeste 27 Noroeste 0.2 841 0.1 96
2019-11-17 08:00:00 2 15 Noroeste 38 Noroeste 0.2 840.8 -0.7 96
2019-11-17 07:00:00 2.1 18 Noroeste 38 Oeste 0.4 840.9 -0.9 96
2019-11-17 06:00:00 1.6 13 Noroeste 28 Oeste 0 840.9 -1.3 96
2019-11-17 05:00:00 0.8 11 Noroeste 19 Noroeste 0 841.5 -1.1 96
2019-11-17 04:00:00 0.2 3 Sudeste 7 Este 0.2 841.8 -1.3 96
2019-11-17 03:00:00 0.1 4 Norte 13 Noroeste 0 842.2 -1.1 96
2019-11-17 02:00:00 0.1 3 Sudeste 17 Noroeste 0 842.6 -0.8 96
2019-11-17 01:00:00 0 5 Norte 14 Noroeste 0 843.1 -0.4 96
2019-11-17 00:00:00 -0.1 4 Sur 11 Noroeste 0 843.3 -0.3 96
2019-11-16 23:00:00 -0.2 6 Noroeste 22 Noroeste 0 843.4 -0.1 96
2019-11-16 22:00:00 -0.4 12 Noroeste 23 Noroeste 0 843.5 -0.1 95
2019-11-16 21:00:00 -1.2 4 Norte 12 Norte 0 843.6 0.1 95
2019-11-16 20:00:00 -1.5 8 Noroeste 23 Noroeste 0 843.5 0.1 95
2019-11-16 19:00:00 -1.8 17 Noroeste 27 Noroeste 0 843.6 0.3 95
2019-11-16 18:00:00 -2 13 Noroeste 25 Noroeste 0 843.5 0.2 95
2019-11-16 17:00:00 -2.2 16 Noroeste 25 Noroeste 0 843.4 0.3 95
2019-11-16 16:00:00 -1.9 13 Noroeste 36 Noroeste 0 843.3 0.1 95
2019-11-16 15:00:00 -1.7 14 Noroeste 29 Noroeste 0 843.3 0 95
2019-11-16 14:00:00 -1.3 20 Noroeste 31 Noroeste 0.2 843.1 0.1 95
2019-11-16 13:00:00 -1.6 17 Noroeste -- -- 0.6 843.2 0.7 95
2019-11-16 12:00:00 -1.8 -- -- -- -- 0.6 843.3 1.3 95
2019-11-16 11:00:00 -1.9 -- -- -- -- 0 843 1.4 95
2019-11-16 10:00:00 -2 -- -- -- -- 0 842.5 1.3 95
2019-11-16 09:00:00 -2.1 -- -- -- -- 0 842 1.4 95
2019-11-16 08:00:00 -2.1 -- -- -- -- 0 841.6 1 95
2019-11-16 07:00:00 -2.2 -- -- -- -- 0 841.2 0.6 95
2019-11-16 06:00:00 -2.2 28 Noroeste -- -- 0 840.6 0.5 95
2019-11-16 05:00:00 -2.3 -- -- -- -- 0 840.6 1 95
2019-11-16 04:00:00 -2.5 -- -- -- -- 0 840.6 0.9 95
2019-11-16 03:00:00 -2.4 33 Noroeste -- -- 0.2 840.1 0.4 95
2019-11-16 02:00:00 -2.6 37 Noroeste -- -- 0.4 839.6 0.6 95
2019-11-16 01:00:00 -2.6 -- -- -- -- 1.2 839.7 1.5 95
2019-11-16 00:00:00 -2.7 -- -- -- -- 2.2 839.7 2.1 95
2019-11-15 23:00:00 -2.8 -- -- -- -- 0 839 1.8 95
2019-11-15 22:00:00 -2.6 -- -- -- -- 0.2 838.2 1.5 95
2019-11-15 21:00:00 -2.8 -- -- -- -- 0.8 837.6 1.3 95
2019-11-15 20:00:00 -2.7 29 Noroeste 79 Noroeste 1 837.2 1.4 95
2019-11-15 19:00:00 -3 42 Noroeste -- -- 1.4 836.7 1.1 95
2019-11-15 18:00:00 -2.9 -- -- -- -- 1.2 836.3 1 95
2019-11-15 17:00:00 -2.8 -- -- -- -- 1.4 835.8 0.3 95
2019-11-15 16:00:00 -3 -- -- -- -- 0.4 835.6 0 95
2019-11-15 15:00:00 -2.7 39 Noroeste -- -- 0.4 835.3 -0.7 95
2019-11-15 14:00:00 -2.6 -- -- -- -- 0 835.5 -0.1 95
2019-11-15 13:00:00 -2.7 -- -- -- -- 0.2 835.6 0.4 94
2019-11-15 12:00:00 -2.9 -- -- -- -- 0 836 0.9 94
2019-11-15 11:00:00 -2.8 -- -- -- -- 0.2 835.6 1 95
2019-11-15 10:00:00 -3.1 -- -- -- -- 0 835.2 0.7 95
2019-11-15 09:00:00 -3.1 -- -- -- -- 0 835.1 0.4 95
2019-11-15 08:00:00 -3 -- -- -- -- 0 834.6 0.4 95
2019-11-15 07:00:00 -3.2 -- -- -- -- 0.2 834.5 0.2 95
2019-11-15 06:00:00 -3 -- -- -- -- 0.6 834.7 0.5 95
2019-11-15 05:00:00 -2.8 30 Noroeste -- -- 0.6 834.2 0.3 95
2019-11-15 04:00:00 -2.9 -- -- -- -- 0.6 834.3 0.3 95
2019-11-15 03:00:00 -2.9 -- -- -- -- 0.6 834.2 0.6 95
2019-11-15 02:00:00 -2.8 27 Noroeste -- -- 0.6 833.9 0.6 95
2019-11-15 01:00:00 -2.9 32 Noroeste 69 Noroeste 1 834 2 95
2019-11-15 00:00:00 -2.4 29 Noroeste -- -- 1.4 833.6 1.7 95